Time;durP1;ratioP1;P1;durP2;ratioP2;P2;SDS_P1;SDS_P2;PMS_P1;PMS_P2;Temp;Humidity;BMP_temperature;BMP_pressure;BME280_temperature;BME280_humidity;BME280_pressure;Samples;Min_cycle;Max_cycle;Signal;HPM_P1;HPM_P2
2022/04/05 00:02:06;;;;;;;7.97;6.97;;;;;;;;;;5012645;28;20239;-81
2022/04/05 00:04:33;;;;;;;9.27;5.97;;;;;;;;;;5016248;28;20188;-81
2022/04/05 00:07:01;;;;;;;8.00;7.20;;;;;;;;;;5013847;28;20238;-81
2022/04/05 00:09:28;;;;;;;7.67;6.90;;;;;;;;;;5013873;28;20215;-81
2022/04/05 00:11:55;;;;;;;7.20;6.50;;;;;;;;;;5012881;28;20236;-81
2022/04/05 00:14:23;;;;;;;4.93;4.47;;;;;;;;;;5012420;28;20200;-80
2022/04/05 00:16:50;;;;;;;6.27;5.50;;;;;;;;;;5009588;28;20235;-81
2022/04/05 00:19:19;;;;;;;5.80;4.83;;;;;;;;;;4998544;28;20713;-81
2022/04/05 00:21:46;;;;;;;6.37;5.77;;;;;;;;;;4998675;28;20240;-81
2022/04/05 00:24:17;;;;;;;6.00;5.47;;;;;;;;;;5000341;28;20408;-81
2022/04/05 00:26:44;;;;;;;7.93;5.73;;;;;;;;;;4998041;28;20228;-81
2022/04/05 00:29:11;;;;;;;8.33;7.43;;;;;;;;;;4999706;28;20227;-80
2022/04/05 00:31:38;;;;;;;6.90;6.20;;;;;;;;;;4998518;28;20332;-80
2022/04/05 00:34:05;;;;;;;7.90;6.27;;;;;;;;;;4999147;28;20319;-80
2022/04/05 00:36:33;;;;;;;8.03;7.27;;;;;;;;;;4996702;28;20238;-80
2022/04/05 00:39:00;;;;;;;7.63;6.87;;;;;;;;;;4996499;28;20204;-81
2022/04/05 00:41:28;;;;;;;9.07;6.23;;;;;;;;;;4997485;28;20232;-80
2022/04/05 00:43:55;;;;;;;8.97;7.03;;;;;;;;;;4998088;28;20200;-81
2022/04/05 00:46:22;;;;;;;6.40;5.80;;;;;;;;;;4996597;28;20244;-80
2022/04/05 00:48:51;;;;;;;8.77;6.07;;;;;;;;;;4997169;28;20892;-80
2022/04/05 00:51:18;;;;;;;7.20;5.83;;;;;;;;;;4998151;28;20244;-80
2022/04/05 00:53:47;;;;;;;8.70;6.80;;;;;;;;;;4998678;28;20211;-80
2022/04/05 00:56:16;;;;;;;6.00;5.40;;;;;;;;;;4997325;28;20231;-80
2022/04/05 00:58:47;;;;;;;8.83;6.03;;;;;;;;;;4995561;28;20216;-80
2022/04/05 01:01:16;;;;;;;6.70;5.40;;;;;;;;;;4995144;28;20243;-80
2022/04/05 01:03:47;;;;;;;8.70;5.67;;;;;;;;;;4996219;28;20625;-80
2022/04/05 01:06:14;;;;;;;8.10;7.00;;;;;;;;;;4995196;28;20731;-81
2022/04/05 01:08:42;;;;;;;8.37;6.37;;;;;;;;;;4990762;28;20208;-80
2022/04/05 01:11:09;;;;;;;6.37;5.77;;;;;;;;;;4984069;28;20276;-80
2022/04/05 01:13:36;;;;;;;8.53;7.83;;;;;;;;;;4995648;28;20208;-80
2022/04/05 01:16:05;;;;;;;7.97;6.47;;;;;;;;;;4995262;28;20312;-80
2022/04/05 01:18:32;;;;;;;5.90;5.33;;;;;;;;;;4995677;28;20196;-81
2022/04/05 01:20:59;;;;;;;9.30;6.23;;;;;;;;;;4995400;28;20232;-80
2022/04/05 01:23:27;;;;;;;6.67;5.93;;;;;;;;;;4984153;28;20199;-82
2022/04/05 01:25:56;;;;;;;5.83;5.10;;;;;;;;;;4994836;28;20609;-80
2022/04/05 01:28:23;;;;;;;10.73;6.87;;;;;;;;;;4985031;28;20293;-80
2022/04/05 01:30:50;;;;;;;7.33;6.13;;;;;;;;;;4990779;28;20240;-80
2022/04/05 01:33:18;;;;;;;6.73;5.83;;;;;;;;;;4999676;28;20216;-80
2022/04/05 01:35:45;;;;;;;6.90;6.20;;;;;;;;;;4999655;28;20239;-80
2022/04/05 01:38:12;;;;;;;6.63;5.93;;;;;;;;;;5000969;28;20200;-79
2022/04/05 01:40:39;;;;;;;6.90;6.13;;;;;;;;;;5003910;28;20246;-80
2022/04/05 01:43:08;;;;;;;7.37;6.60;;;;;;;;;;5003719;28;20212;-80
2022/04/05 01:45:36;;;;;;;13.07;6.67;;;;;;;;;;5001534;28;20240;-80
2022/04/05 01:48:03;;;;;;;9.37;6.10;;;;;;;;;;4999262;28;20231;-80
2022/04/05 01:50:31;;;;;;;4.63;4.17;;;;;;;;;;4999363;28;20271;-80
2022/04/05 01:52:59;;;;;;;10.40;6.87;;;;;;;;;;4999990;28;20208;-81
2022/04/05 01:55:26;;;;;;;6.20;5.60;;;;;;;;;;4999483;28;20231;-81
2022/04/05 01:57:53;;;;;;;5.47;4.97;;;;;;;;;;4999337;28;20204;-80
2022/04/05 02:00:21;;;;;;;8.73;6.20;;;;;;;;;;4999302;28;20238;-80
2022/04/05 02:02:48;;;;;;;7.93;5.83;;;;;;;;;;5000918;28;20208;-80
2022/04/05 02:05:15;;;;;;;8.70;5.80;;;;;;;;;;4999836;28;20239;-80
2022/04/05 02:07:42;;;;;;;6.10;5.60;;;;;;;;;;5001179;28;20234;-80
2022/04/05 02:10:10;;;;;;;6.00;5.33;;;;;;;;;;4999010;28;20214;-81
2022/04/05 02:12:37;;;;;;;5.73;5.23;;;;;;;;;;5002252;28;20284;-80
2022/04/05 02:15:04;;;;;;;6.37;5.77;;;;;;;;;;5003960;28;20215;-80
2022/04/05 02:17:33;;;;;;;5.93;5.43;;;;;;;;;;5000750;28;20199;-81
2022/04/05 02:20:00;;;;;;;6.33;5.30;;;;;;;;;;5000133;28;20250;-80
2022/04/05 02:22:27;;;;;;;4.73;4.17;;;;;;;;;;4999540;28;20243;-80
2022/04/05 02:24:55;;;;;;;6.93;4.73;;;;;;;;;;4999666;28;20208;-81
2022/04/05 02:27:22;;;;;;;6.60;6.00;;;;;;;;;;5000191;28;20227;-80
2022/04/05 02:29:49;;;;;;;6.40;4.97;;;;;;;;;;5001573;28;20296;-81
2022/04/05 02:32:16;;;;;;;6.60;4.63;;;;;;;;;;4999867;28;20247;-80
2022/04/05 02:34:44;;;;;;;5.53;5.00;;;;;;;;;;5000555;28;20208;-81
2022/04/05 02:37:11;;;;;;;4.47;4.07;;;;;;;;;;5000426;28;20251;-81
2022/04/05 02:39:38;;;;;;;5.83;4.80;;;;;;;;;;4999748;28;20212;-80
2022/04/05 02:42:05;;;;;;;5.03;4.63;;;;;;;;;;5000059;28;20751;-81
2022/04/05 02:44:33;;;;;;;4.93;4.53;;;;;;;;;;4998360;28;20211;-80
2022/04/05 02:47:00;;;;;;;5.10;4.60;;;;;;;;;;4998270;28;20243;-81
2022/04/05 02:49:27;;;;;;;5.50;4.40;;;;;;;;;;4997567;28;20215;-81
2022/04/05 02:51:55;;;;;;;5.43;4.70;;;;;;;;;;4998643;28;20249;-80
2022/04/05 02:54:22;;;;;;;4.90;4.50;;;;;;;;;;5001722;28;20239;-81
2022/04/05 02:56:50;;;;;;;6.00;4.87;;;;;;;;;;4998728;28;20331;-81
2022/04/05 02:59:17;;;;;;;4.90;3.20;;;;;;;;;;5000616;28;20200;-80
2022/04/05 03:01:44;;;;;;;3.00;2.80;;;;;;;;;;5000405;28;20850;-80
2022/04/05 03:04:12;;;;;;;6.40;4.43;;;;;;;;;;5000537;28;20676;-80
2022/04/05 03:06:39;;;;;;;4.10;3.80;;;;;;;;;;5000294;28;20243;-80
2022/04/05 03:09:07;;;;;;;5.80;5.10;;;;;;;;;;5001109;28;20775;-80
2022/04/05 03:11:34;;;;;;;4.27;3.63;;;;;;;;;;5000898;28;20236;-80
2022/04/05 03:14:01;;;;;;;5.07;3.80;;;;;;;;;;5001938;28;20200;-81
2022/04/05 03:16:28;;;;;;;7.43;4.90;;;;;;;;;;5001205;28;20298;-80
2022/04/05 03:18:55;;;;;;;5.23;4.73;;;;;;;;;;5000518;28;20200;-81
2022/04/05 03:21:22;;;;;;;5.07;4.67;;;;;;;;;;5000090;28;20236;-80
2022/04/05 03:23:49;;;;;;;6.67;4.60;;;;;;;;;;5000741;28;20211;-81
2022/04/05 03:26:18;;;;;;;5.27;4.77;;;;;;;;;;4999283;28;20230;-81
2022/04/05 03:28:45;;;;;;;5.23;4.70;;;;;;;;;;5000619;28;20594;-81
2022/04/05 03:31:12;;;;;;;5.40;4.97;;;;;;;;;;4999650;28;20243;-82
2022/04/05 03:33:39;;;;;;;5.10;4.43;;;;;;;;;;4998970;28;20218;-81
2022/04/05 03:36:06;;;;;;;4.87;4.43;;;;;;;;;;5000050;28;20654;-81
2022/04/05 03:38:33;;;;;;;5.30;4.80;;;;;;;;;;4999918;28;20214;-82
2022/04/05 03:41:00;;;;;;;5.57;5.13;;;;;;;;;;4999035;28;20246;-82
2022/04/05 03:43:28;;;;;;;4.40;4.10;;;;;;;;;;4998104;28;20219;-82
2022/04/05 03:45:56;;;;;;;4.97;4.50;;;;;;;;;;5000487;28;20615;-81
2022/04/05 03:48:23;;;;;;;5.30;4.90;;;;;;;;;;4998915;28;20278;-81
2022/04/05 03:50:50;;;;;;;4.60;4.20;;;;;;;;;;4997842;28;20609;-81
2022/04/05 03:53:17;;;;;;;5.67;4.53;;;;;;;;;;4999494;28;20211;-81
2022/04/05 03:55:44;;;;;;;4.67;4.27;;;;;;;;;;4999378;28;20239;-81
2022/04/05 03:58:12;;;;;;;5.23;4.73;;;;;;;;;;4999961;28;20207;-81
2022/04/05 04:00:40;;;;;;;5.60;5.10;;;;;;;;;;4999448;28;20240;-81
2022/04/05 04:03:07;;;;;;;5.10;4.60;;;;;;;;;;4999335;28;20216;-80
2022/04/05 04:05:35;;;;;;;6.57;4.77;;;;;;;;;;4998208;28;20235;-81
2022/04/05 04:08:02;;;;;;;3.77;3.47;;;;;;;;;;4999193;28;20224;-81
2022/04/05 04:10:29;;;;;;;4.53;4.13;;;;;;;;;;5001486;28;20235;-81
2022/04/05 04:12:56;;;;;;;4.40;4.10;;;;;;;;;;5018622;28;20211;-81
2022/04/05 04:15:23;;;;;;;4.43;4.13;;;;;;;;;;5018650;28;20241;-81
2022/04/05 04:17:51;;;;;;;3.77;3.47;;;;;;;;;;5016346;28;20206;-82
2022/04/05 04:20:18;;;;;;;4.97;4.30;;;;;;;;;;5006899;28;20301;-82
2022/04/05 04:22:45;;;;;;;4.37;3.93;;;;;;;;;;4994305;28;20207;-83
2022/04/05 04:25:12;;;;;;;5.20;4.70;;;;;;;;;;4993437;28;20627;-82
2022/04/05 04:27:39;;;;;;;4.30;3.90;;;;;;;;;;4993300;28;20228;-84
2022/04/05 04:30:07;;;;;;;5.00;4.50;;;;;;;;;;4993164;28;20204;-83
2022/04/05 04:32:34;;;;;;;4.83;4.43;;;;;;;;;;4993115;28;20692;-83
2022/04/05 04:35:02;;;;;;;5.43;4.40;;;;;;;;;;4992940;28;20254;-83
2022/04/05 04:37:29;;;;;;;4.97;4.50;;;;;;;;;;4993504;28;20205;-83
2022/04/05 04:39:56;;;;;;;4.63;4.23;;;;;;;;;;4992561;28;20204;-83
2022/04/05 04:42:23;;;;;;;5.10;4.70;;;;;;;;;;4993022;28;20231;-83
2022/04/05 04:44:50;;;;;;;4.70;4.30;;;;;;;;;;4993173;28;20207;-84
2022/04/05 04:47:18;;;;;;;4.40;4.10;;;;;;;;;;4992826;28;20224;-83
2022/04/05 04:49:45;;;;;;;4.70;4.40;;;;;;;;;;4994923;28;20255;-81
2022/04/05 04:52:13;;;;;;;4.90;4.50;;;;;;;;;;4995269;28;20240;-83
2022/04/05 04:54:40;;;;;;;4.07;3.77;;;;;;;;;;4995349;28;20668;-82
2022/04/05 04:57:07;;;;;;;4.67;4.27;;;;;;;;;;4995347;28;20227;-83
2022/04/05 04:59:34;;;;;;;5.00;4.60;;;;;;;;;;4994692;28;20233;-83
2022/04/05 05:02:01;;;;;;;4.37;4.07;;;;;;;;;;4994494;28;20247;-82
2022/04/05 05:04:29;;;;;;;3.80;3.40;;;;;;;;;;4995150;28;20630;-83
2022/04/05 05:06:56;;;;;;;4.87;4.47;;;;;;;;;;4992848;28;20242;-83
2022/04/05 05:09:24;;;;;;;4.57;4.17;;;;;;;;;;4994625;28;20250;-85
2022/04/05 05:11:51;;;;;;;5.27;4.77;;;;;;;;;;4993527;28;20235;-82
2022/04/05 05:14:18;;;;;;;4.87;4.47;;;;;;;;;;4994328;28;20204;-83
2022/04/05 05:16:45;;;;;;;4.83;4.43;;;;;;;;;;4993738;28;20232;-84
2022/04/05 05:19:12;;;;;;;4.60;4.20;;;;;;;;;;4989012;28;20207;-84
2022/04/05 05:21:40;;;;;;;4.00;3.70;;;;;;;;;;4992350;28;20240;-84
2022/04/05 05:24:07;;;;;;;4.37;4.07;;;;;;;;;;4992476;28;20211;-84
2022/04/05 05:26:35;;;;;;;4.50;4.10;;;;;;;;;;4992323;28;20709;-83
2022/04/05 05:29:03;;;;;;;5.00;4.50;;;;;;;;;;4993005;28;20223;-84
2022/04/05 05:31:30;;;;;;;4.30;4.00;;;;;;;;;;4992546;28;20247;-84
2022/04/05 05:33:57;;;;;;;4.50;4.10;;;;;;;;;;4992888;28;20208;-82
2022/04/05 05:36:24;;;;;;;3.97;3.63;;;;;;;;;;4992133;28;20262;-83
2022/04/05 05:38:51;;;;;;;4.67;4.27;;;;;;;;;;4992839;28;20845;-82
2022/04/05 05:41:18;;;;;;;4.77;4.37;;;;;;;;;;4992830;28;20613;-83
2022/04/05 05:43:46;;;;;;;3.50;3.27;;;;;;;;;;4993872;28;20192;-83
2022/04/05 05:46:13;;;;;;;4.87;4.47;;;;;;;;;;4993921;28;20240;-83
2022/04/05 05:48:41;;;;;;;4.53;4.13;;;;;;;;;;4994465;28;20696;-83
2022/04/05 05:51:08;;;;;;;4.50;4.10;;;;;;;;;;5000811;28;20260;-83
2022/04/05 05:53:36;;;;;;;5.73;4.93;;;;;;;;;;5011566;28;20209;-83
2022/04/05 05:56:03;;;;;;;5.23;4.73;;;;;;;;;;5009137;28;20240;-82
2022/04/05 05:58:30;;;;;;;4.67;4.33;;;;;;;;;;5009005;28;20188;-82
2022/04/05 06:00:59;;;;;;;4.97;4.57;;;;;;;;;;5009849;28;20239;-81
2022/04/05 06:03:26;;;;;;;4.63;4.20;;;;;;;;;;5006291;28;20250;-81
2022/04/05 06:05:53;;;;;;;4.63;4.33;;;;;;;;;;5019503;28;20243;-82
2022/04/05 06:08:20;;;;;;;5.10;4.20;;;;;;;;;;5006084;28;20256;-81
2022/04/05 06:10:47;;;;;;;4.63;4.23;;;;;;;;;;4992297;28;20253;-81
2022/04/05 06:13:15;;;;;;;4.10;3.80;;;;;;;;;;4991031;28;20666;-81
2022/04/05 06:15:42;;;;;;;4.40;4.10;;;;;;;;;;4994190;28;20311;-80
2022/04/05 06:18:10;;;;;;;5.07;4.67;;;;;;;;;;4994682;28;20284;-81
2022/04/05 06:20:37;;;;;;;6.07;5.57;;;;;;;;;;4997004;28;20262;-81
2022/04/05 06:23:06;;;;;;;5.93;5.33;;;;;;;;;;4999647;28;20216;-81
2022/04/05 06:25:33;;;;;;;5.53;5.07;;;;;;;;;;4993322;28;20247;-81
2022/04/05 06:28:02;;;;;;;5.30;4.90;;;;;;;;;;4994944;28;20212;-81
2022/04/05 06:30:29;;;;;;;6.23;5.80;;;;;;;;;;4993729;28;20248;-81
2022/04/05 06:33:04;;;;;;;6.20;5.70;;;;;;;;;;4992648;28;20217;-81
2022/04/05 06:35:33;;;;;;;5.60;5.10;;;;;;;;;;4993941;28;20215;-81
2022/04/05 06:38:00;;;;;;;6.07;5.57;;;;;;;;;;4993786;28;20220;-81
2022/04/05 06:40:27;;;;;;;6.60;5.73;;;;;;;;;;4993309;28;20240;-81
2022/04/05 06:42:54;;;;;;;5.73;5.23;;;;;;;;;;4993961;28;20208;-81
2022/04/05 06:45:22;;;;;;;5.07;4.73;;;;;;;;;;4993562;28;20247;-82
2022/04/05 06:47:49;;;;;;;5.40;4.97;;;;;;;;;;4993493;28;20239;-82
2022/04/05 06:50:20;;;;;;;6.00;5.50;;;;;;;;;;4992873;28;20238;-82
2022/04/05 06:52:49;;;;;;;5.73;5.13;;;;;;;;;;4993059;28;20533;-83
2022/04/05 06:55:16;;;;;;;5.07;4.67;;;;;;;;;;4990448;28;20236;-82
2022/04/05 06:57:43;;;;;;;5.50;5.00;;;;;;;;;;5002418;28;20223;-81
2022/04/05 07:00:11;;;;;;;4.00;3.37;;;;;;;;;;5007277;28;20267;-83
2022/04/05 07:02:39;;;;;;;6.30;5.03;;;;;;;;;;5002635;28;20287;-82
2022/04/05 07:05:06;;;;;;;5.20;4.70;;;;;;;;;;4999729;28;20227;-82
2022/04/05 07:07:34;;;;;;;5.20;4.70;;;;;;;;;;4998546;28;20215;-82
2022/04/05 07:10:02;;;;;;;4.63;4.23;;;;;;;;;;4995020;28;20708;-82
2022/04/05 07:12:29;;;;;;;4.30;4.00;;;;;;;;;;4995625;28;20208;-82
2022/04/05 07:14:56;;;;;;;5.10;4.70;;;;;;;;;;4994150;28;20219;-82
2022/04/05 07:17:23;;;;;;;5.37;4.87;;;;;;;;;;5001132;28;20211;-82
2022/04/05 07:19:50;;;;;;;5.17;4.77;;;;;;;;;;5006938;28;20199;-83
2022/04/05 07:22:17;;;;;;;4.97;4.60;;;;;;;;;;5013617;28;20238;-83
2022/04/05 07:24:45;;;;;;;5.00;4.60;;;;;;;;;;5004326;28;20215;-82
2022/04/05 07:27:14;;;;;;;6.90;5.50;;;;;;;;;;5004743;28;20582;-83
2022/04/05 07:29:41;;;;;;;4.70;4.30;;;;;;;;;;5010935;28;20239;-82
2022/04/05 07:32:08;;;;;;;4.00;3.70;;;;;;;;;;5005812;28;20243;-81
2022/04/05 07:34:35;;;;;;;5.47;5.07;;;;;;;;;;5015810;28;20207;-82
2022/04/05 07:37:02;;;;;;;5.17;4.67;;;;;;;;;;4995605;28;20602;-82
2022/04/05 07:39:29;;;;;;;5.23;4.83;;;;;;;;;;5006100;28;20203;-82
2022/04/05 07:41:57;;;;;;;5.30;4.80;;;;;;;;;;5007588;28;20327;-81
2022/04/05 07:44:26;;;;;;;5.43;4.93;;;;;;;;;;5007198;28;20208;-82
2022/04/05 07:46:53;;;;;;;3.77;3.47;;;;;;;;;;5009450;28;20228;-82
2022/04/05 07:49:20;;;;;;;5.47;4.07;;;;;;;;;;5006032;28;20227;-82
2022/04/05 07:51:47;;;;;;;4.93;4.53;;;;;;;;;;5009629;28;20773;-82
2022/04/05 07:54:14;;;;;;;4.67;4.30;;;;;;;;;;5006074;28;20667;-82
2022/04/05 07:56:41;;;;;;;5.00;4.60;;;;;;;;;;5014108;28;20246;-82
2022/04/05 07:59:08;;;;;;;4.37;4.07;;;;;;;;;;5014211;28;20211;-82
2022/04/05 08:01:36;;;;;;;3.27;3.07;;;;;;;;;;5014313;28;20598;-82
2022/04/05 08:04:03;;;;;;;4.63;4.23;;;;;;;;;;5014676;28;20217;-82
2022/04/05 08:06:31;;;;;;;4.33;3.97;;;;;;;;;;5014882;28;20239;-82
2022/04/05 08:08:59;;;;;;;4.10;3.80;;;;;;;;;;5014773;28;20319;-82
2022/04/05 08:11:27;;;;;;;4.83;4.43;;;;;;;;;;4996907;28;20294;-82
2022/04/05 08:13:56;;;;;;;4.03;3.73;;;;;;;;;;4995067;28;20204;-82
2022/04/05 08:16:23;;;;;;;4.93;4.20;;;;;;;;;;4994019;28;20610;-81
2022/04/05 08:18:51;;;;;;;4.13;3.83;;;;;;;;;;4994418;28;20200;-82
2022/04/05 08:21:19;;;;;;;5.10;4.70;;;;;;;;;;4993116;28;20235;-82
2022/04/05 08:23:48;;;;;;;4.63;4.30;;;;;;;;;;4993587;28;20192;-82
2022/04/05 08:26:16;;;;;;;4.23;3.87;;;;;;;;;;4993605;28;20228;-81
2022/04/05 08:28:43;;;;;;;4.90;4.50;;;;;;;;;;4993484;28;20227;-82
2022/04/05 08:31:10;;;;;;;4.00;3.70;;;;;;;;;;4993540;28;20240;-82
2022/04/05 08:33:37;;;;;;;4.23;3.90;;;;;;;;;;4993317;28;20220;-82
2022/04/05 08:36:06;;;;;;;3.83;3.53;;;;;;;;;;4993758;28;20712;-82
2022/04/05 08:38:33;;;;;;;4.43;4.10;;;;;;;;;;4992874;28;20219;-82
2022/04/05 08:41:03;;;;;;;4.80;4.40;;;;;;;;;;4993454;28;20260;-82
2022/04/05 08:43:30;;;;;;;4.70;4.27;;;;;;;;;;4993589;28;20267;-82
2022/04/05 08:45:59;;;;;;;3.70;3.40;;;;;;;;;;5001608;28;20651;-82
2022/04/05 08:48:27;;;;;;;5.57;5.07;;;;;;;;;;5006402;28;20250;-82
2022/04/05 08:50:55;;;;;;;3.07;2.87;;;;;;;;;;5001607;28;20231;-81
2022/04/05 08:53:23;;;;;;;2.87;2.67;;;;;;;;;;5000440;28;20208;-80
2022/04/05 08:55:51;;;;;;;4.43;4.03;;;;;;;;;;4998724;28;20228;-80
2022/04/05 08:58:18;;;;;;;5.07;4.67;;;;;;;;;;4995485;28;20211;-80
2022/04/05 09:00:45;;;;;;;5.03;4.50;;;;;;;;;;4994774;28;20242;-81
2022/04/05 09:03:13;;;;;;;6.10;5.50;;;;;;;;;;4999013;28;20208;-80
2022/04/05 09:05:43;;;;;;;5.30;4.90;;;;;;;;;;4999350;28;20236;-80
2022/04/05 09:08:28;;;;;;;4.63;4.23;;;;;;;;;;4998753;28;20231;-81
2022/04/05 09:11:12;;;;;;;4.13;3.77;;;;;;;;;;4993957;28;20230;-82
2022/04/05 09:13:40;;;;;;;5.13;4.17;;;;;;;;;;4997440;28;20208;-82
2022/04/05 09:16:08;;;;;;;6.03;5.53;;;;;;;;;;4995231;28;20704;-82
2022/04/05 09:18:36;;;;;;;5.40;4.90;;;;;;;;;;4981256;28;20631;-82
2022/04/05 09:21:05;;;;;;;4.67;4.23;;;;;;;;;;4995485;28;20219;-82
2022/04/05 09:23:33;;;;;;;3.27;3.07;;;;;;;;;;4994742;28;20204;-83
2022/04/05 09:26:02;;;;;;;4.93;3.93;;;;;;;;;;4996699;28;20246;-83
2022/04/05 09:28:31;;;;;;;5.60;5.20;;;;;;;;;;4992032;28;20635;-83
2022/04/05 09:30:59;;;;;;;5.10;4.10;;;;;;;;;;4991201;28;20233;-83
2022/04/05 09:33:26;;;;;;;4.97;4.53;;;;;;;;;;4977930;28;20217;-83
2022/04/05 09:36:02;;;;;;;4.10;3.80;;;;;;;;;;4986005;28;20859;-83
2022/04/05 09:38:29;;;;;;;5.20;4.70;;;;;;;;;;4996830;28;20553;-83
2022/04/05 09:41:09;;;;;;;6.70;6.03;;;;;;;;;;4995016;28;20243;-84
2022/04/05 09:43:38;;;;;;;5.70;5.10;;;;;;;;;;4993180;28;20211;-84
2022/04/05 09:46:05;;;;;;;5.37;4.87;;;;;;;;;;4996288;28;20246;-83
2022/04/05 09:48:33;;;;;;;6.03;5.53;;;;;;;;;;5011370;28;20667;-83
2022/04/05 09:51:03;;;;;;;5.00;4.50;;;;;;;;;;5012851;28;20236;-82
2022/04/05 09:53:32;;;;;;;5.30;4.80;;;;;;;;;;5009538;28;20204;-83
2022/04/05 09:56:06;;;;;;;4.27;3.87;;;;;;;;;;5015895;28;20246;-83
2022/04/05 09:58:33;;;;;;;4.87;4.37;;;;;;;;;;5016047;28;20235;-82
2022/04/05 10:01:07;;;;;;;4.47;4.07;;;;;;;;;;5015955;28;20235;-82
2022/04/05 10:03:35;;;;;;;4.83;4.43;;;;;;;;;;5012351;28;20711;-82
2022/04/05 10:06:03;;;;;;;4.97;4.57;;;;;;;;;;5014621;28;20231;-83
2022/04/05 10:08:32;;;;;;;4.33;3.97;;;;;;;;;;5011362;28;20215;-83
2022/04/05 10:11:00;;;;;;;5.63;5.10;;;;;;;;;;5011505;28;20254;-83
2022/04/05 10:13:27;;;;;;;6.13;5.63;;;;;;;;;;5003224;28;20208;-83
2022/04/05 10:15:54;;;;;;;6.30;5.70;;;;;;;;;;4997400;28;20246;-83
2022/04/05 10:18:24;;;;;;;6.60;6.00;;;;;;;;;;4996115;28;20212;-86
2022/04/05 10:20:52;;;;;;;5.90;5.30;;;;;;;;;;5009224;28;20241;-84
2022/04/05 10:23:20;;;;;;;6.77;6.17;;;;;;;;;;5018046;28;20216;-84
2022/04/05 10:25:49;;;;;;;5.87;5.40;;;;;;;;;;5017403;28;20659;-84
2022/04/05 10:28:17;;;;;;;5.43;4.87;;;;;;;;;;5017521;28;20596;-83
2022/04/05 10:30:45;;;;;;;7.63;6.93;;;;;;;;;;5015313;28;20727;-84
2022/04/05 10:33:16;;;;;;;4.47;4.07;;;;;;;;;;5010752;28;20611;-83
2022/04/05 10:35:52;;;;;;;8.93;6.67;;;;;;;;;;5001988;28;20739;-83
2022/04/05 10:38:19;;;;;;;6.80;6.10;;;;;;;;;;4975942;28;20193;-83
2022/04/05 10:41:01;;;;;;;5.00;4.60;;;;;;;;;;4975290;28;20241;-83
2022/04/05 10:43:28;;;;;;;7.33;6.30;;;;;;;;;;4975609;28;20212;-84
2022/04/05 10:45:55;;;;;;;6.10;4.87;;;;;;;;;;4975510;28;20247;-83
2022/04/05 10:48:27;;;;;;;6.50;5.37;;;;;;;;;;4975789;28;20193;-83
2022/04/05 10:51:09;;;;;;;6.43;5.70;;;;;;;;;;4975650;28;20319;-83
2022/04/05 10:53:39;;;;;;;6.30;5.73;;;;;;;;;;4973396;28;20621;-83
2022/04/05 10:56:18;;;;;;;6.97;5.87;;;;;;;;;;4978010;28;20240;-85
2022/04/05 10:59:05;;;;;;;6.80;6.17;;;;;;;;;;4989820;28;20201;-84
2022/04/05 11:01:39;;;;;;;8.73;6.20;;;;;;;;;;4975859;28;20244;-84
2022/04/05 11:04:28;;;;;;;7.03;4.20;;;;;;;;;;4979515;28;20219;-84
2022/04/05 11:07:11;;;;;;;6.27;5.70;;;;;;;;;;4975826;28;20251;-84
2022/04/05 11:09:44;;;;;;;5.33;4.83;;;;;;;;;;4975612;28;20213;-84
2022/04/05 11:12:12;;;;;;;5.13;4.73;;;;;;;;;;4980822;28;20722;-84
2022/04/05 11:14:39;;;;;;;8.63;6.63;;;;;;;;;;5000857;28;20196;-84
2022/04/05 11:17:08;;;;;;;5.20;4.70;;;;;;;;;;5010311;28;20748;-84
2022/04/05 11:19:35;;;;;;;5.97;4.90;;;;;;;;;;5014189;28;20207;-82
2022/04/05 11:22:04;;;;;;;6.20;5.60;;;;;;;;;;5013931;28;20235;-82
2022/04/05 11:24:50;;;;;;;6.10;5.70;;;;;;;;;;5014719;28;20702;-83
2022/04/05 11:27:28;;;;;;;5.40;4.40;;;;;;;;;;5010271;28;20236;-83
2022/04/05 11:30:14;;;;;;;5.67;5.17;;;;;;;;;;4993934;28;20235;-83
2022/04/05 11:33:01;;;;;;;6.70;5.43;;;;;;;;;;4994736;28;20220;-84
2022/04/05 11:35:28;;;;;;;6.37;5.87;;;;;;;;;;5011300;28;20232;-82
2022/04/05 11:37:55;;;;;;;5.60;5.00;;;;;;;;;;5016130;28;20208;-83
2022/04/05 11:40:23;;;;;;;4.13;3.80;;;;;;;;;;5013968;28;20243;-85
2022/04/05 11:42:51;;;;;;;6.60;6.00;;;;;;;;;;5015512;28;20208;-83
2022/04/05 11:45:19;;;;;;;5.10;4.70;;;;;;;;;;5009030;28;20232;-84
2022/04/05 11:47:52;;;;;;;7.77;5.10;;;;;;;;;;4994753;28;20221;-85
2022/04/05 11:50:19;;;;;;;5.00;4.50;;;;;;;;;;4990746;28;20244;-85
2022/04/05 11:52:47;;;;;;;4.87;4.47;;;;;;;;;;4980729;28;20215;-85
2022/04/05 11:58:04;;;;;;;7.73;5.33;;;;;;;;;;4996944;28;20227;-85
2022/04/05 12:00:33;;;;;;;4.43;4.00;;;;;;;;;;4994310;28;20258;-85
2022/04/05 12:03:05;;;;;;;5.10;4.63;;;;;;;;;;4996255;28;20274;-85
2022/04/05 12:05:41;;;;;;;6.47;4.90;;;;;;;;;;4993461;28;20232;-84
2022/04/05 12:08:10;;;;;;;3.93;3.63;;;;;;;;;;4995394;28;20208;-84
2022/04/05 12:10:38;;;;;;;4.97;4.47;;;;;;;;;;4994006;28;20263;-84
2022/04/05 12:13:07;;;;;;;7.37;4.90;;;;;;;;;;4994726;28;20208;-84
2022/04/05 12:15:34;;;;;;;5.63;5.13;;;;;;;;;;4996272;28;20239;-84
2022/04/05 12:18:18;;;;;;;6.43;5.83;;;;;;;;;;4996053;28;20221;-83
2022/04/05 12:21:00;;;;;;;5.77;4.40;;;;;;;;;;5014374;28;20270;-83
2022/04/05 12:23:31;;;;;;;5.27;4.73;;;;;;;;;;5010409;28;20215;-84
2022/04/05 12:26:05;;;;;;;4.73;4.33;;;;;;;;;;5012990;28;20235;-83
2022/04/05 12:28:33;;;;;;;4.40;4.00;;;;;;;;;;5013647;28;20265;-84
2022/04/05 12:31:04;;;;;;;4.57;4.23;;;;;;;;;;5013202;28;20243;-84
2022/04/05 12:33:31;;;;;;;5.40;4.93;;;;;;;;;;5013670;28;20625;-84
2022/04/05 12:35:59;;;;;;;8.23;5.50;;;;;;;;;;5020919;28;20906;-84
2022/04/05 12:38:26;;;;;;;5.57;5.07;;;;;;;;;;5015093;28;20207;-84
2022/04/05 12:40:53;;;;;;;5.10;4.70;;;;;;;;;;5014417;28;20719;-84
2022/04/05 12:43:21;;;;;;;4.30;3.90;;;;;;;;;;5013594;28;20207;-83
2022/04/05 12:45:50;;;;;;;6.77;5.67;;;;;;;;;;5012852;28;20238;-84
2022/04/05 12:48:18;;;;;;;6.80;4.90;;;;;;;;;;5012888;28;20718;-83
2022/04/05 12:50:46;;;;;;;4.27;3.90;;;;;;;;;;5012645;28;20239;-84
2022/04/05 12:53:14;;;;;;;5.33;4.90;;;;;;;;;;5012761;28;20207;-84
2022/04/05 12:55:41;;;;;;;8.63;5.30;;;;;;;;;;5012897;28;20238;-84
2022/04/05 12:58:10;;;;;;;4.23;3.83;;;;;;;;;;4999805;28;20222;-84
2022/04/05 13:00:44;;;;;;;5.97;5.37;;;;;;;;;;4993093;28;20251;-84
2022/04/05 13:03:14;;;;;;;6.00;5.13;;;;;;;;;;4992981;28;20189;-84
2022/04/05 13:08:33;;;;;;;5.30;4.87;;;;;;;;;;4992961;28;20316;-84
2022/04/05 13:11:00;;;;;;;5.03;4.53;;;;;;;;;;4992704;28;20243;-84
2022/04/05 13:13:28;;;;;;;5.60;4.50;;;;;;;;;;4993105;28;20215;-84
2022/04/05 13:16:05;;;;;;;5.63;5.13;;;;;;;;;;4992354;28;20244;-83
2022/04/05 13:18:34;;;;;;;7.47;5.87;;;;;;;;;;4992915;28;20767;-83
2022/04/05 13:21:03;;;;;;;5.77;4.93;;;;;;;;;;4993388;28;20240;-83
2022/04/05 13:23:31;;;;;;;6.10;5.50;;;;;;;;;;4993166;28;20679;-83
2022/04/05 13:25:58;;;;;;;6.70;5.77;;;;;;;;;;4996820;28;20235;-83
2022/04/05 13:28:32;;;;;;;6.77;5.53;;;;;;;;;;4996574;28;20238;-83
2022/04/05 13:31:07;;;;;;;4.47;4.07;;;;;;;;;;4996198;28;20259;-84
2022/04/05 13:33:35;;;;;;;5.00;4.50;;;;;;;;;;4996276;28;20246;-83
2022/04/05 13:36:02;;;;;;;6.43;5.53;;;;;;;;;;4996336;28;20639;-83
2022/04/05 13:38:29;;;;;;;7.37;5.73;;;;;;;;;;4996492;28;20215;-83
2022/04/05 13:40:56;;;;;;;7.07;4.50;;;;;;;;;;4995952;28;20232;-84
2022/04/05 13:43:23;;;;;;;5.97;5.47;;;;;;;;;;4996648;28;20673;-83
2022/04/05 13:45:50;;;;;;;7.70;5.60;;;;;;;;;;4996737;28;20246;-83
2022/04/05 13:48:17;;;;;;;5.30;4.80;;;;;;;;;;4996659;28;20208;-83
2022/04/05 13:50:46;;;;;;;8.10;6.00;;;;;;;;;;4995765;28;20239;-84
2022/04/05 13:53:13;;;;;;;6.97;5.70;;;;;;;;;;4996198;28;20216;-84
2022/04/05 13:55:40;;;;;;;7.80;6.43;;;;;;;;;;4996990;28;20616;-83
2022/04/05 13:58:08;;;;;;;6.17;5.57;;;;;;;;;;4993866;28;20222;-85
2022/04/05 14:00:35;;;;;;;7.17;6.47;;;;;;;;;;4989270;28;20713;-85
2022/04/05 14:03:02;;;;;;;7.53;5.57;;;;;;;;;;4997747;28;20251;-85
2022/04/05 14:05:29;;;;;;;6.03;5.43;;;;;;;;;;4996525;28;20232;-85
2022/04/05 14:07:58;;;;;;;6.87;5.43;;;;;;;;;;4996436;28;20196;-83
2022/04/05 14:10:25;;;;;;;7.93;7.13;;;;;;;;;;4995188;28;20244;-85
2022/04/05 14:12:52;;;;;;;6.30;5.77;;;;;;;;;;4995628;28;20211;-85
2022/04/05 14:15:19;;;;;;;7.50;6.73;;;;;;;;;;4993852;28;20232;-84
2022/04/05 14:17:46;;;;;;;5.47;4.93;;;;;;;;;;4995461;28;20195;-84
2022/04/05 14:20:13;;;;;;;6.73;6.10;;;;;;;;;;5008221;28;20243;-85
2022/04/05 14:22:40;;;;;;;8.67;7.77;;;;;;;;;;4993372;28;20200;-84
2022/04/05 14:25:09;;;;;;;5.40;4.90;;;;;;;;;;5007367;28;20212;-86
2022/04/05 14:27:37;;;;;;;8.00;6.47;;;;;;;;;;4998925;28;20212;-85
2022/04/05 14:30:05;;;;;;;6.53;5.40;;;;;;;;;;4994151;28;20195;-85
2022/04/05 14:32:32;;;;;;;7.87;7.00;;;;;;;;;;4994690;28;20220;-85
2022/04/05 14:35:01;;;;;;;6.93;6.23;;;;;;;;;;4994191;28;20208;-85
2022/04/05 14:37:28;;;;;;;8.43;6.27;;;;;;;;;;4994692;28;20248;-84
2022/04/05 14:39:55;;;;;;;7.40;6.70;;;;;;;;;;4994479;28;20673;-84
2022/04/05 14:42:23;;;;;;;7.43;6.63;;;;;;;;;;4995134;28;20228;-84
2022/04/05 14:44:50;;;;;;;4.40;4.00;;;;;;;;;;4994840;28;20216;-84
2022/04/05 14:47:17;;;;;;;6.37;5.77;;;;;;;;;;4995144;28;20231;-85
2022/04/05 14:49:45;;;;;;;8.10;7.37;;;;;;;;;;4994544;28;20207;-85
2022/04/05 14:52:12;;;;;;;7.93;7.13;;;;;;;;;;4995640;28;20243;-84
2022/04/05 14:54:40;;;;;;;6.40;5.10;;;;;;;;;;4995339;28;20208;-85
2022/04/05 14:57:07;;;;;;;6.70;6.00;;;;;;;;;;4994033;28;20611;-85